createdAt,value
2019-04-10T00:00:52.972Z,15.63
2019-04-10T00:03:27.885Z,19.17
2019-04-10T00:05:52.175Z,20.00
2019-04-10T00:08:20.649Z,16.20
2019-04-10T00:10:49.089Z,15.80
2019-04-10T00:13:18.434Z,15.70
2019-04-10T00:15:47.166Z,15.87
2019-04-10T00:18:15.946Z,17.30
2019-04-10T00:20:44.885Z,15.77
2019-04-10T00:23:13.438Z,15.27
2019-04-10T00:25:41.889Z,15.67
2019-04-10T00:28:11.502Z,14.27
2019-04-10T00:30:40.959Z,15.03
2019-04-10T00:33:10.262Z,17.10
2019-04-10T00:35:39.381Z,16.30
2019-04-10T00:38:08.020Z,19.33
2019-04-10T00:40:36.469Z,15.53
2019-04-10T00:43:04.939Z,17.07
2019-04-10T00:45:33.516Z,15.83
2019-04-10T00:48:02.061Z,13.97
2019-04-10T00:50:30.771Z,15.10
2019-04-10T00:52:59.368Z,15.37
2019-04-10T00:55:28.782Z,15.33
2019-04-10T00:57:58.163Z,18.07
2019-04-10T01:00:26.738Z,16.53
2019-04-10T01:02:55.217Z,14.30
2019-04-10T01:05:23.688Z,14.70
2019-04-10T01:07:52.151Z,15.20
2019-04-10T01:10:21.977Z,15.23
2019-04-10T01:12:50.655Z,12.70
2019-04-10T01:15:19.176Z,15.13
2019-04-10T01:17:48.543Z,17.73
2019-04-10T01:20:17.602Z,14.93
2019-04-10T01:22:46.236Z,15.67
2019-04-10T01:25:14.755Z,14.83
2019-04-10T01:27:43.200Z,13.63
2019-04-10T01:30:12.087Z,15.00
2019-04-10T01:32:41.628Z,13.53
2019-04-10T01:35:10.502Z,14.97
2019-04-10T01:37:48.827Z,15.43
2019-04-10T01:40:09.503Z,15.00
2019-04-10T01:42:38.825Z,13.33
2019-04-10T01:45:07.629Z,13.77
2019-04-10T01:47:37.029Z,15.03
2019-04-10T01:50:06.391Z,12.37
2019-04-10T01:52:35.385Z,14.30
2019-04-10T01:55:18.070Z,14.67
2019-04-10T01:57:36.645Z,16.13
2019-04-10T02:00:08.266Z,14.43
2019-04-10T02:02:39.157Z,15.33
2019-04-10T02:05:08.166Z,16.03
2019-04-10T02:07:36.772Z,15.23
2019-04-10T02:10:07.900Z,14.93
2019-04-10T02:12:36.812Z,15.67
2019-04-10T02:15:07.089Z,13.20
2019-04-10T02:17:37.496Z,14.67
2019-04-10T02:20:10.472Z,13.80
2019-04-10T02:22:39.215Z,15.20
2019-04-10T02:25:08.419Z,15.53
2019-04-10T02:27:36.963Z,13.40
2019-04-10T02:30:10.358Z,17.43
2019-04-10T02:32:41.510Z,14.23
2019-04-10T02:35:13.111Z,14.43
2019-04-10T02:37:41.683Z,12.83
2019-04-10T02:40:10.938Z,14.03
2019-04-10T02:42:41.078Z,13.13
2019-04-10T02:45:10.379Z,14.30
2019-04-10T02:47:39.068Z,16.10
2019-04-10T02:50:09.547Z,15.13
2019-04-10T02:52:41.224Z,14.47
2019-04-10T02:55:09.897Z,15.67
2019-04-10T02:57:39.239Z,16.73
2019-04-10T03:00:08.459Z,16.23
2019-04-10T03:02:38.650Z,14.77
2019-04-10T03:05:09.232Z,13.40
2019-04-10T03:07:37.741Z,17.97
2019-04-10T03:10:19.148Z,15.83
2019-04-10T03:12:38.763Z,15.97
2019-04-10T03:15:10.071Z,13.70
2019-04-10T03:17:38.265Z,14.60
2019-04-10T03:20:07.837Z,12.93
2019-04-10T03:22:36.669Z,21.40
2019-04-10T03:25:07.254Z,17.47
2019-04-10T03:27:36.565Z,13.60
2019-04-10T03:30:07.650Z,14.03
2019-04-10T03:32:48.020Z,14.20
2019-04-10T03:35:29.138Z,16.17
2019-04-10T03:37:57.640Z,16.40
2019-04-10T03:40:27.062Z,16.30
2019-04-10T03:42:55.721Z,14.57
2019-04-10T03:45:24.438Z,15.57
2019-04-10T03:47:52.964Z,16.67
2019-04-10T03:50:21.609Z,15.23
2019-04-10T03:52:50.180Z,16.67
2019-04-10T03:55:18.889Z,15.53
2019-04-10T03:57:47.577Z,17.10
2019-04-10T04:00:16.755Z,18.10
2019-04-10T04:02:46.300Z,16.27
2019-04-10T04:05:15.738Z,14.63
2019-04-10T04:07:44.198Z,19.03
2019-04-10T04:10:14.228Z,15.70
2019-04-10T04:12:42.737Z,14.47
2019-04-10T04:15:11.476Z,17.80
2019-04-10T04:17:40.133Z,16.10
2019-04-10T04:20:08.827Z,14.80
2019-04-10T04:22:37.280Z,14.53
2019-04-10T04:25:06.773Z,15.93
2019-04-10T04:27:35.716Z,17.23
2019-04-10T04:30:07.028Z,16.47
2019-04-10T04:32:35.488Z,15.50
2019-04-10T04:35:04.688Z,17.63
2019-04-10T04:37:33.660Z,21.33
2019-04-10T04:40:03.039Z,15.53
2019-04-10T04:42:31.652Z,21.10
2019-04-10T04:45:00.865Z,17.47
2019-04-10T04:47:29.401Z,18.17
2019-04-10T04:49:57.859Z,15.87
2019-04-10T04:52:26.348Z,19.77
2019-04-10T04:54:55.246Z,16.50
2019-04-10T04:57:24.553Z,16.53
2019-04-10T04:59:53.107Z,14.83
2019-04-10T05:02:21.947Z,16.37
2019-04-10T05:04:51.451Z,19.67
2019-04-10T05:07:20.379Z,17.90
2019-04-10T05:09:49.073Z,21.07
2019-04-10T05:12:18.126Z,18.47
2019-04-10T05:14:46.690Z,16.73
2019-04-10T05:17:17.187Z,16.83
2019-04-10T05:19:45.359Z,16.30
2019-04-10T05:22:14.397Z,16.80
2019-04-10T05:24:42.911Z,16.23
2019-04-10T05:27:11.861Z,19.73
2019-04-10T05:29:40.896Z,17.50
2019-04-10T05:32:09.562Z,17.33
2019-04-10T05:34:38.365Z,16.50
2019-04-10T05:37:07.323Z,18.93
2019-04-10T05:39:43.153Z,18.93
2019-04-10T05:42:06.430Z,16.10
2019-04-10T05:44:35.967Z,18.20
2019-04-10T05:47:05.374Z,19.77
2019-04-10T05:49:35.097Z,17.23
2019-04-10T05:52:04.204Z,19.47
2019-04-10T05:54:33.332Z,16.43
2019-04-10T05:57:02.075Z,15.83
2019-04-10T05:59:49.879Z,21.00
2019-04-10T06:02:18.346Z,19.27
2019-04-10T06:04:46.820Z,18.20
2019-04-10T06:07:15.287Z,19.03
2019-04-10T06:09:54.046Z,16.63
2019-04-10T06:12:13.963Z,17.80
2019-04-10T06:14:42.527Z,17.87
2019-04-10T06:17:11.130Z,17.30
2019-04-10T06:19:40.546Z,16.23
2019-04-10T06:22:10.932Z,20.00
2019-04-10T06:24:40.433Z,16.20
2019-04-10T06:27:10.264Z,19.43
2019-04-10T06:29:39.320Z,17.53
2019-04-10T06:32:07.975Z,17.20
2019-04-10T06:34:36.490Z,17.83
2019-04-10T06:37:06.150Z,20.53
2019-04-10T06:39:35.231Z,20.47
2019-04-10T06:42:04.521Z,20.07
2019-04-10T06:44:34.173Z,20.20
2019-04-10T06:47:02.845Z,16.93
2019-04-10T06:49:31.335Z,18.83
2019-04-10T06:51:59.854Z,18.60
2019-04-10T06:54:28.874Z,22.47
2019-04-10T06:56:58.596Z,18.63
2019-04-10T06:59:28.252Z,19.57
2019-04-10T07:02:05.666Z,18.47
2019-04-10T07:04:27.329Z,17.47
2019-04-10T07:07:04.582Z,17.37
2019-04-10T07:09:27.267Z,18.47
2019-04-10T07:11:59.853Z,20.00
2019-04-10T07:14:26.815Z,16.43
2019-04-10T07:16:55.387Z,19.67
2019-04-10T07:19:24.143Z,18.67
2019-04-10T07:21:52.891Z,16.53
2019-04-10T07:24:21.341Z,18.43
2019-04-10T07:26:50.972Z,18.47
2019-04-10T07:29:21.033Z,17.17
2019-04-10T07:31:50.803Z,18.33
2019-04-10T07:34:23.862Z,18.30
2019-04-10T07:36:49.769Z,19.33
2019-04-10T07:39:18.401Z,17.50
2019-04-10T07:41:47.366Z,19.13
2019-04-10T07:44:15.999Z,17.77
2019-04-10T07:46:44.480Z,19.53
2019-04-10T07:49:12.970Z,18.23
2019-04-10T07:51:44.624Z,17.47
2019-04-10T07:54:19.072Z,17.10
2019-04-10T07:56:44.726Z,18.40
2019-04-10T07:59:13.179Z,17.37
2019-04-10T08:01:42.091Z,17.63
2019-04-10T08:04:10.715Z,19.30
2019-04-10T08:06:39.568Z,18.93
2019-04-10T08:09:08.952Z,19.07
2019-04-10T08:11:38.150Z,19.07
2019-04-10T08:14:10.567Z,18.70
2019-04-10T08:16:39.371Z,19.03
2019-04-10T08:19:08.421Z,20.93
2019-04-10T08:21:38.025Z,17.87
2019-04-10T08:24:07.355Z,17.53
2019-04-10T08:26:36.694Z,20.17
2019-04-10T08:29:05.748Z,19.53
2019-04-10T08:31:34.324Z,16.97
2019-04-10T08:34:03.298Z,20.07
2019-04-10T08:36:32.232Z,20.53
2019-04-10T08:39:00.706Z,19.87
2019-04-10T08:41:29.683Z,18.07
2019-04-10T08:43:58.893Z,18.30
2019-04-10T08:46:28.158Z,23.33
2019-04-10T08:48:56.743Z,19.97
2019-04-10T08:51:25.655Z,18.97
2019-04-10T08:53:56.644Z,20.73
2019-04-10T08:56:24.781Z,19.33
2019-04-10T08:58:53.322Z,20.73
2019-04-10T09:01:22.947Z,21.90
2019-04-10T09:03:53.142Z,19.43
2019-04-10T09:06:21.619Z,19.70
2019-04-10T09:08:50.966Z,20.77
2019-04-10T09:11:26.473Z,19.03
2019-04-10T09:13:49.810Z,21.53
2019-04-10T09:16:18.434Z,32.63
2019-04-10T09:18:47.614Z,22.03
2019-04-10T09:21:17.449Z,22.23
2019-04-10T09:23:52.455Z,24.00
2019-04-10T09:26:16.315Z,22.23
2019-04-10T09:28:44.864Z,19.80
2019-04-10T09:31:13.594Z,19.37
2019-04-10T09:33:43.155Z,19.97
2019-04-10T09:36:11.805Z,18.50
2019-04-10T09:38:41.041Z,21.23
2019-04-10T09:41:09.944Z,20.60
2019-04-10T09:43:38.564Z,19.17
2019-04-10T09:46:07.030Z,24.17
2019-04-10T09:48:35.868Z,24.87
2019-04-10T09:51:05.379Z,21.67
2019-04-10T09:53:35.173Z,19.37
2019-04-10T09:56:03.895Z,19.67
2019-04-10T09:58:32.336Z,21.60
2019-04-10T10:01:20.131Z,20.40
2019-04-10T10:03:48.780Z,19.97
2019-04-10T10:06:27.136Z,20.00
2019-04-10T10:08:47.983Z,18.70
2019-04-10T10:11:16.584Z,20.93
2019-04-10T10:13:45.872Z,18.33
2019-04-10T10:16:14.789Z,18.43
2019-04-10T10:18:43.680Z,21.60
2019-04-10T10:21:12.429Z,20.40
2019-04-10T10:23:41.012Z,18.23
2019-04-10T10:26:10.799Z,18.30
2019-04-10T10:28:39.529Z,18.37
2019-04-10T10:31:08.228Z,18.23
2019-04-10T10:33:37.541Z,18.73
2019-04-10T10:36:06.182Z,17.70
2019-04-10T10:38:34.866Z,18.70
2019-04-10T10:41:04.328Z,17.93
2019-04-10T10:43:34.199Z,19.00
2019-04-10T10:46:03.065Z,17.53
2019-04-10T10:48:31.665Z,19.60
2019-04-10T10:51:00.291Z,18.27
2019-04-10T10:53:28.883Z,19.27
2019-04-10T10:55:58.001Z,18.97
2019-04-10T10:58:26.624Z,18.40
2019-04-10T11:00:55.685Z,19.87
2019-04-10T11:03:24.488Z,16.00
2019-04-10T11:05:53.121Z,17.27
2019-04-10T11:08:22.091Z,15.83
2019-04-10T11:10:55.666Z,15.90
2019-04-10T11:13:20.938Z,19.77
2019-04-10T11:15:49.993Z,18.00
2019-04-10T11:18:18.707Z,17.20
2019-04-10T11:20:48.343Z,17.33
2019-04-10T11:23:18.170Z,16.20
2019-04-10T11:25:47.912Z,20.70
2019-04-10T11:28:16.598Z,16.13
2019-04-10T11:30:45.090Z,19.23
2019-04-10T11:33:14.957Z,17.57
2019-04-10T11:35:43.910Z,17.73
2019-04-10T11:38:13.382Z,18.60
2019-04-10T11:40:42.035Z,16.00
2019-04-10T11:43:12.388Z,16.47
2019-04-10T11:45:44.092Z,18.27
2019-04-10T11:48:12.911Z,15.73
2019-04-10T11:50:43.854Z,18.10
2019-04-10T11:53:13.675Z,15.97
2019-04-10T11:55:46.755Z,17.87
2019-04-10T11:58:14.630Z,15.50
2019-04-10T12:00:50.391Z,17.20
2019-04-10T12:03:15.255Z,16.43
2019-04-10T12:05:46.262Z,15.20
2019-04-10T12:08:40.170Z,15.90
2019-04-10T12:13:16.997Z,20.00
2019-04-10T12:16:05.140Z,16.40
2019-04-10T12:18:34.974Z,18.10
2019-04-10T12:21:03.771Z,16.80
2019-04-10T12:23:32.663Z,16.57
2019-04-10T12:26:01.345Z,19.97
2019-04-10T12:28:29.947Z,15.37
2019-04-10T12:30:59.488Z,19.40
2019-04-10T12:33:28.061Z,18.23
2019-04-10T12:35:56.496Z,17.37
2019-04-10T12:38:25.580Z,20.47
2019-04-10T12:40:55.044Z,14.33
2019-04-10T12:43:23.652Z,17.70
2019-04-10T12:45:52.635Z,16.20
2019-04-10T12:48:21.244Z,15.60
2019-04-10T12:50:49.696Z,16.20
2019-04-10T12:53:19.103Z,17.93
2019-04-10T12:55:47.696Z,19.00
2019-04-10T12:58:17.718Z,15.13
2019-04-10T13:00:47.924Z,16.60
2019-04-10T13:03:16.773Z,17.27
2019-04-10T13:05:45.336Z,15.63
2019-04-10T13:08:21.271Z,17.93
2019-04-10T13:10:45.562Z,15.17
2019-04-10T13:13:14.163Z,15.57
2019-04-10T13:15:43.578Z,14.40
2019-04-10T13:18:12.237Z,16.93
2019-04-10T13:20:40.719Z,15.70
2019-04-10T13:23:09.172Z,16.17
2019-04-10T13:25:38.598Z,17.37
2019-04-10T13:28:08.265Z,15.17
2019-04-10T13:30:46.932Z,15.37
2019-04-10T13:33:08.610Z,18.30
2019-04-10T13:35:37.884Z,15.10
2019-04-10T13:38:06.824Z,17.53
2019-04-10T13:40:35.360Z,18.63
2019-04-10T13:43:04.026Z,18.73
2019-04-10T13:45:32.545Z,17.17
2019-04-10T13:48:01.012Z,17.03
2019-04-10T13:50:30.631Z,15.90
2019-04-10T13:52:59.669Z,14.87
2019-04-10T13:55:28.504Z,14.80
2019-04-10T13:57:57.157Z,15.13
2019-04-10T14:00:40.595Z,15.53
2019-04-10T14:03:10.136Z,16.27
2019-04-10T14:05:39.089Z,16.47
2019-04-10T14:08:08.366Z,16.30
2019-04-10T14:10:40.801Z,16.00
2019-04-10T14:13:07.504Z,17.13
2019-04-10T14:15:36.048Z,19.07
2019-04-10T14:18:04.728Z,15.67
2019-04-10T14:20:33.277Z,15.97
2019-04-10T14:23:12.661Z,16.17
2019-04-10T14:25:42.790Z,14.67
2019-04-10T14:28:11.358Z,17.20
2019-04-10T14:30:45.355Z,14.20
2019-04-10T14:33:14.902Z,15.73
2019-04-10T14:35:43.626Z,15.97
2019-04-10T14:38:12.848Z,13.60
2019-04-10T14:40:41.829Z,15.60
2019-04-10T14:43:10.449Z,16.90
2019-04-10T14:45:38.994Z,14.87
2019-04-10T14:48:07.898Z,15.77
2019-04-10T14:50:36.612Z,14.37
2019-04-10T14:53:05.569Z,12.97
2019-04-10T14:55:34.188Z,14.50
2019-04-10T14:58:03.437Z,18.13
2019-04-10T15:00:46.731Z,14.53
2019-04-10T15:03:16.140Z,17.40
2019-04-10T15:05:49.986Z,14.80
2019-04-10T15:08:15.513Z,14.57
2019-04-10T15:10:44.263Z,14.47
2019-04-10T15:13:17.507Z,12.33
2019-04-10T15:15:43.044Z,15.07
2019-04-10T15:18:11.518Z,12.97
2019-04-10T15:20:40.065Z,14.73
2019-04-10T15:23:09.743Z,14.93
2019-04-10T15:25:39.445Z,14.07
2019-04-10T15:28:08.525Z,16.20
2019-04-10T15:30:37.108Z,11.80
2019-04-10T15:33:06.594Z,11.83
2019-04-10T15:35:35.240Z,12.07
2019-04-10T15:38:04.046Z,14.67
2019-04-10T15:40:32.676Z,12.40
2019-04-10T15:43:01.123Z,13.13
2019-04-10T15:45:30.195Z,13.57
2019-04-10T15:48:00.163Z,12.70
2019-04-10T15:50:29.132Z,12.57
2019-04-10T15:52:57.976Z,15.10
2019-04-10T15:55:27.806Z,18.27
2019-04-10T15:57:59.333Z,14.77
2019-04-10T16:00:27.418Z,12.40
2019-04-10T16:02:55.924Z,15.33
2019-04-10T16:05:24.392Z,15.20
2019-04-10T16:07:53.099Z,12.30
2019-04-10T16:10:32.912Z,14.23
2019-04-10T16:13:03.943Z,14.20
2019-04-10T16:15:36.886Z,12.90
2019-04-10T16:18:09.979Z,12.90
2019-04-10T16:20:38.949Z,13.87
2019-04-10T16:23:10.082Z,11.57
2019-04-10T16:25:40.465Z,13.83
2019-04-10T16:28:11.024Z,12.93
2019-04-10T16:30:39.427Z,11.80
2019-04-10T16:33:08.989Z,13.00
2019-04-10T16:35:38.400Z,12.90
2019-04-10T16:38:07.117Z,12.13
2019-04-10T16:40:36.252Z,13.17
2019-04-10T16:43:06.069Z,12.87
2019-04-10T16:45:34.867Z,12.57
2019-04-10T16:48:03.834Z,12.17
2019-04-10T16:50:32.357Z,12.00
2019-04-10T16:53:01.324Z,17.83
2019-04-10T16:55:30.716Z,11.90
2019-04-10T16:57:59.219Z,11.23
2019-04-10T17:00:27.758Z,12.00
2019-04-10T17:02:56.612Z,14.90
2019-04-10T17:05:25.387Z,13.10
2019-04-10T17:07:54.077Z,13.47
2019-04-10T17:10:27.516Z,13.03
2019-04-10T17:12:56.044Z,13.10
2019-04-10T17:15:25.959Z,15.07
2019-04-10T17:17:54.868Z,10.77
2019-04-10T17:20:24.584Z,11.37
2019-04-10T17:22:54.239Z,11.90
2019-04-10T17:25:24.351Z,14.10
2019-04-10T17:27:54.110Z,13.93
2019-04-10T17:30:22.723Z,13.00
2019-04-10T17:32:52.158Z,16.90
2019-04-10T17:35:21.323Z,14.50
2019-04-10T17:37:50.096Z,13.27
2019-04-10T17:40:30.111Z,15.77
2019-04-10T17:42:49.724Z,13.10
2019-04-10T17:45:18.536Z,13.43
2019-04-10T17:47:47.303Z,12.83
2019-04-10T17:50:18.242Z,13.87
2019-04-10T17:52:47.259Z,15.97
2019-04-10T17:55:15.968Z,13.57
2019-04-10T17:57:46.005Z,14.97
2019-04-10T18:00:22.996Z,13.37
2019-04-10T18:02:51.669Z,13.53
2019-04-10T18:05:20.418Z,15.07
2019-04-10T18:07:49.214Z,15.30
2019-04-10T18:10:17.860Z,12.90
2019-04-10T18:12:46.294Z,12.30
2019-04-10T18:15:15.744Z,15.50
2019-04-10T18:17:44.319Z,12.53
2019-04-10T18:20:12.924Z,13.13
2019-04-10T18:22:42.737Z,13.40
2019-04-10T18:25:13.783Z,14.27
2019-04-10T18:27:42.861Z,12.77
2019-04-10T18:30:12.064Z,15.93
2019-04-10T18:32:40.656Z,14.67
2019-04-10T18:35:09.238Z,12.10
2019-04-10T18:37:37.707Z,15.47
2019-04-10T18:40:07.463Z,17.63
2019-04-10T18:42:37.327Z,17.80
2019-04-10T18:45:11.192Z,20.60
2019-04-10T18:47:39.984Z,13.80
2019-04-10T18:50:09.780Z,13.33
2019-04-10T18:52:39.313Z,18.33
2019-04-10T18:55:08.123Z,14.90
2019-04-10T18:57:36.818Z,14.90
2019-04-10T19:00:19.663Z,13.07
2019-04-10T19:02:50.810Z,13.07
2019-04-10T19:05:27.842Z,15.10
2019-04-10T19:07:56.714Z,13.50
2019-04-10T19:10:26.396Z,13.50
2019-04-10T19:12:54.983Z,15.00
2019-04-10T19:15:24.425Z,11.47
2019-04-10T19:17:53.207Z,12.30
2019-04-10T19:20:22.771Z,14.30
2019-04-10T19:22:52.769Z,13.47
2019-04-10T19:25:21.451Z,15.83
2019-04-10T19:27:50.639Z,14.90
2019-04-10T19:30:23.409Z,11.77
2019-04-10T19:32:51.989Z,11.80
2019-04-10T19:35:21.404Z,14.07
2019-04-10T19:37:51.282Z,15.27
2019-04-10T19:40:20.050Z,15.33
2019-04-10T19:42:49.362Z,17.23
2019-04-10T19:45:17.938Z,14.33
2019-04-10T19:47:46.424Z,15.23
2019-04-10T19:50:15.179Z,14.43
2019-04-10T19:52:44.649Z,20.30
2019-04-10T19:55:13.646Z,12.83
2019-04-10T19:57:42.126Z,14.17
2019-04-10T20:00:12.511Z,11.83
2019-04-10T20:02:41.724Z,13.30
2019-04-10T20:05:10.350Z,11.53
2019-04-10T20:07:38.816Z,15.50
2019-04-10T20:10:08.676Z,12.60
2019-04-10T20:12:37.343Z,11.63
2019-04-10T20:15:07.119Z,14.27
2019-04-10T20:17:35.817Z,12.70
2019-04-10T20:20:06.850Z,13.30
2019-04-10T20:22:35.489Z,11.63
2019-04-10T20:25:04.288Z,13.53
2019-04-10T20:27:32.728Z,13.83
2019-04-10T20:30:01.565Z,13.20
2019-04-10T20:32:30.301Z,12.17
2019-04-10T20:34:58.766Z,12.10
2019-04-10T20:37:27.236Z,13.43
2019-04-10T20:39:55.897Z,13.10
2019-04-10T20:42:25.246Z,12.10
2019-04-10T20:44:54.228Z,11.77
2019-04-10T20:47:22.679Z,11.87
2019-04-10T20:49:51.227Z,16.73
2019-04-10T20:52:20.021Z,12.07
2019-04-10T20:54:48.919Z,14.97
2019-04-10T20:57:17.531Z,15.50
2019-04-10T20:59:45.995Z,12.60
2019-04-10T21:02:14.527Z,11.10
2019-04-10T21:04:53.767Z,12.70
2019-04-10T21:07:13.190Z,11.67
2019-04-10T21:09:41.784Z,14.10
2019-04-10T21:12:13.132Z,15.40
2019-04-10T21:14:40.538Z,12.97
2019-04-10T21:17:08.996Z,11.93
2019-04-10T21:19:37.603Z,12.97
2019-04-10T21:22:06.168Z,12.53
2019-04-10T21:24:35.742Z,11.63
2019-04-10T21:27:05.679Z,13.00
2019-04-10T21:29:52.723Z,13.83
2019-04-10T21:32:34.928Z,14.90
2019-04-10T21:35:05.473Z,13.67
2019-04-10T21:37:34.642Z,15.97
2019-04-10T21:40:03.835Z,11.10
2019-04-10T21:42:33.516Z,12.87
2019-04-10T21:45:02.132Z,12.80
2019-04-10T21:47:30.599Z,13.73
2019-04-10T21:50:00.306Z,12.20
2019-04-10T21:52:28.928Z,12.53
2019-04-10T21:55:00.293Z,13.23
2019-04-10T21:57:29.946Z,12.57
2019-04-10T21:59:59.565Z,13.03
2019-04-10T22:02:28.118Z,11.57
2019-04-10T22:04:57.482Z,15.00
2019-04-10T22:07:30.386Z,12.93
2019-04-10T22:10:01.536Z,12.57
2019-04-10T22:12:34.485Z,13.73
2019-04-10T22:15:00.422Z,14.43
2019-04-10T22:17:28.959Z,13.03
2019-04-10T22:19:57.510Z,13.17
2019-04-10T22:22:26.667Z,13.23
2019-04-10T22:24:55.364Z,10.97
2019-04-10T22:27:23.799Z,15.47
2019-04-10T22:29:52.275Z,12.53
2019-04-10T22:32:20.852Z,12.50
2019-04-10T22:34:50.505Z,14.17
2019-04-10T22:37:19.334Z,14.07
2019-04-10T22:39:48.188Z,11.97
2019-04-10T22:42:17.172Z,13.07
2019-04-10T22:44:47.149Z,13.97
2019-04-10T22:47:16.887Z,14.67
2019-04-10T22:49:45.626Z,12.93
2019-04-10T22:52:14.078Z,13.60
2019-04-10T22:54:42.549Z,16.17
2019-04-10T22:57:11.015Z,14.60
2019-04-10T22:59:40.399Z,13.67
2019-04-10T23:02:12.962Z,14.17
2019-04-10T23:04:39.261Z,14.17
2019-04-10T23:07:09.360Z,19.73
2019-04-10T23:09:38.202Z,14.17
2019-04-10T23:12:07.889Z,12.70
2019-04-10T23:14:36.621Z,13.67
2019-04-10T23:17:05.324Z,13.63
2019-04-10T23:19:34.210Z,13.53
2019-04-10T23:22:03.084Z,14.07
2019-04-10T23:24:31.858Z,12.63
2019-04-10T23:27:13.394Z,13.23
2019-04-10T23:29:41.961Z,12.17
2019-04-10T23:32:11.157Z,12.90
2019-04-10T23:34:40.926Z,14.83
2019-04-10T23:37:10.772Z,15.67
2019-04-10T23:39:40.409Z,14.13
2019-04-10T23:42:09.091Z,16.73
2019-04-10T23:44:37.901Z,13.23
2019-04-10T23:47:07.503Z,11.83
2019-04-10T23:49:37.173Z,13.30
2019-04-10T23:52:05.926Z,12.90
2019-04-10T23:54:35.458Z,14.90
2019-04-10T23:57:05.109Z,15.77
2019-04-10T23:59:34.941Z,14.03
